Thursday, May 24, 2018, 3:22 PM EDT
Back to Local

KBWI, Baltimore-washington International

Location: Glen Burnie, MD, United States Lat: 39.167
Local Time: 3:22 PM EDT (19:22 GMT) Lon: -76.683
Time Zone: US/Eastern Elev: 147 ft

Show me the last for .
Show Decoded

2018-05-24 14:54 METAR KBWI 241854Z 03004KT 10SM CLR 29/07 A3014 RMK AO2 SLP206 T02890072 =
2018-05-24 13:54 METAR KBWI 241754Z VRB03KT 10SM CLR 28/06 A3016 RMK AO2 SLP211 T02780061 10278
                 20211 58007 =
2018-05-24 12:54 METAR KBWI 241654Z VRB03KT 10SM CLR 27/07 A3018 RMK AO2 SLP217 T02720067 =
2018-05-24 11:54 METAR KBWI 241554Z 04008KT 10SM CLR 27/08 A3018 RMK AO2 SLP218 T02670083 =
2018-05-24 10:54 METAR KBWI 241454Z 01008KT 10SM FEW250 26/11 A3018 RMK AO2 SLP218 T02610111
                 51005 =
2018-05-24 09:54 METAR KBWI 241354Z 03006G15KT 10SM FEW000 FEW250 24/11 A3017 RMK AO2 SLP216 FU
                 FEW000 FU PLUME AT AP DRFTG SW T02390106 =
2018-05-24 09:52 METAR KBWI 241352Z 02006G15KT 10SM FEW000 FEW250 24/10 A3017 RMK AO2 FU FEW000
                 FU PLUME AT AP DRFTG SW =
2018-05-24 08:54 METAR KBWI 241254Z 35005KT 10SM FEW250 23/11 A3017 RMK AO2 SLP216 T02280106 =
2018-05-24 07:54 METAR KBWI 241154Z VRB03KT 10SM FEW250 21/12 A3016 RMK AO2 SLP213 T02110122
                 10211 20144 52020 =
2018-05-24 06:54 METAR KBWI 241054Z 29003KT 10SM FEW250 18/12 A3015 RMK AO2 SLP206 T01780122 $ =
2018-05-24 05:54 METAR KBWI 240954Z 31005KT 10SM FEW250 17/12 A3012 RMK AO2 SLP199 T01670122 $ =
2018-05-24 04:54 METAR KBWI 240854Z 29004KT 10SM CLR 15/13 A3010 RMK AO2 SLP192 T01500128 53005 $
                 =
2018-05-24 03:54 METAR KBWI 240754Z 27005KT 10SM CLR 16/13 A3009 RMK AO2 SLP188 T01610128 $ =
2018-05-24 02:54 METAR KBWI 240654Z 26003KT 10SM CLR 17/14 A3009 RMK AO2 SLP188 T01670139 $ =
2018-05-24 01:54 METAR KBWI 240554Z 26004KT 10SM CLR 17/14 A3009 RMK AO2 SLP188 T01670139 10244
                 20156 51004 $ =
2018-05-24 00:54 METAR KBWI 240454Z 26004KT 10SM CLR 16/14 A3009 RMK AO2 SLP187 T01610139
                 402720156 $ =
2018-05-23 23:54 METAR KBWI 240354Z 26003KT 10SM FEW250 17/14 A3008 RMK AO2 SLP185 T01720144 $ =
2018-05-23 22:54 METAR KBWI 240254Z 26004KT 10SM FEW170 BKN250 17/14 A3008 RMK AO2 SLP183
                 T01720144 51016 $ =
2018-05-23 21:54 METAR KBWI 240154Z 00000KT 10SM FEW170 SCT250 19/14 A3007 RMK AO2 SLP182
                 T01890144 $ =
2018-05-23 20:54 METAR KBWI 240054Z VRB03KT 10SM FEW170 BKN250 23/13 A3006 RMK AO2 SLP176
                 T02280133 $ =
2018-05-23 19:54 METAR KBWI 232354Z 32004KT 10SM FEW050 SCT170 BKN250 24/13 A3003 RMK AO2 SLP167
                 T02440133 10272 20244 53008 $ =
2018-05-23 18:54 METAR KBWI 232254Z 31009KT 10SM SCT055 SCT250 26/14 A3001 RMK AO2 SLP162
                 T02560144 $ =
2018-05-23 17:54 METAR KBWI 232154Z 32009G17KT 10SM SCT060 SCT250 26/14 A3001 RMK AO2 SLP159
                 T02610144 $ =
2018-05-23 16:54 METAR KBWI 232054Z 31013KT 10SM BKN060 BKN080 26/15 A3001 RMK AO2 SLP159
                 T02610150 56002 =
2018-05-23 15:54 METAR KBWI 231954Z 32011KT 10SM BKN060 BKN080 26/15 A3001 RMK AO2 SLP161
                 T02610150 =

Support USWX by starting your Amazon purchase here.